createdAt,value
2022-08-04T10:24:19.287Z,511.88
2022-08-04T10:25:44.416Z,495.00
2022-08-04T10:26:19.252Z,500.63
2022-08-04T10:27:19.455Z,511.88
2022-08-04T10:28:19.227Z,517.50
2022-08-04T10:29:19.223Z,534.38
2022-08-04T10:30:19.230Z,511.88
2022-08-04T10:31:19.201Z,506.25
2022-08-04T10:32:19.208Z,579.38
2022-08-04T10:33:19.183Z,590.63
2022-08-04T10:34:19.184Z,601.88
2022-08-04T10:35:19.183Z,630.00
2022-08-04T10:36:19.170Z,658.13
2022-08-04T10:37:19.365Z,691.88
2022-08-04T10:38:28.448Z,725.63
2022-08-04T10:39:43.023Z,753.75
2022-08-04T10:40:19.127Z,748.13
2022-08-04T10:41:19.122Z,759.38
2022-08-04T10:42:19.139Z,759.38
2022-08-04T10:43:20.479Z,703.13
2022-08-04T10:44:19.114Z,731.25
2022-08-04T10:45:19.091Z,753.75
2022-08-04T10:46:19.081Z,770.63
2022-08-04T10:47:19.199Z,843.75
2022-08-04T10:48:19.067Z,821.25
2022-08-04T10:49:19.058Z,832.50
2022-08-04T10:50:19.052Z,826.88
2022-08-04T10:51:19.044Z,821.25
2022-08-04T10:52:19.057Z,815.63
2022-08-04T10:53:19.030Z,821.25
2022-08-04T10:54:19.025Z,832.50
2022-08-04T10:55:19.019Z,905.63
2022-08-04T10:56:19.005Z,911.25
2022-08-04T10:57:19.124Z,916.88
2022-08-04T10:58:18.990Z,922.50
2022-08-04T10:59:18.984Z,916.88
2022-08-04T11:00:18.977Z,933.75
2022-08-04T11:01:59.924Z,945.00
2022-08-04T11:02:18.989Z,956.25
2022-08-04T11:03:18.996Z,973.13
2022-08-04T11:04:27.193Z,1006.88
2022-08-04T11:05:18.950Z,950.63
2022-08-04T11:06:18.935Z,1006.88
2022-08-04T11:07:18.986Z,939.38
2022-08-04T11:08:20.677Z,1001.25
2022-08-04T11:09:18.937Z,967.50
2022-08-04T11:10:18.920Z,916.88
2022-08-04T11:11:18.913Z,922.50
2022-08-04T11:12:18.916Z,905.63
2022-08-04T11:13:22.095Z,911.25
2022-08-04T11:14:18.879Z,883.13
2022-08-04T11:15:18.872Z,871.88
2022-08-04T11:16:18.865Z,877.50
2022-08-04T11:17:19.001Z,928.13
2022-08-04T11:18:18.862Z,911.25
2022-08-04T11:19:18.852Z,855.00
2022-08-04T11:20:34.487Z,810.00
2022-08-04T11:21:18.843Z,770.63
2022-08-04T11:22:18.852Z,742.50
2022-08-04T11:23:18.818Z,725.63
2022-08-04T11:24:18.821Z,736.88
2022-08-04T11:25:18.817Z,770.63
2022-08-04T11:26:18.806Z,804.38
2022-08-04T11:27:18.893Z,815.63
2022-08-04T11:28:18.795Z,821.25
2022-08-04T11:29:18.779Z,843.75
2022-08-04T11:30:18.772Z,855.00
2022-08-04T11:31:18.766Z,860.63
2022-08-04T11:32:18.770Z,866.25
2022-08-04T11:33:18.758Z,877.50
2022-08-04T11:34:18.786Z,883.13
2022-08-04T11:35:18.739Z,888.75
2022-08-04T11:36:18.740Z,888.75
2022-08-04T11:37:18.738Z,894.38
2022-08-04T11:38:18.732Z,883.13
2022-08-04T11:39:18.766Z,883.13
2022-08-04T11:40:18.717Z,888.75
2022-08-04T11:41:18.755Z,855.00
2022-08-04T11:42:18.715Z,866.25
2022-08-04T11:43:18.718Z,928.13
2022-08-04T11:44:18.681Z,939.38
2022-08-04T11:45:18.687Z,950.63
2022-08-04T11:46:18.668Z,933.75
2022-08-04T11:47:18.693Z,933.75
2022-08-04T11:48:18.667Z,956.25
2022-08-04T11:49:18.651Z,933.75
2022-08-04T11:50:18.643Z,973.13
2022-08-04T11:51:18.648Z,995.63
2022-08-04T11:52:18.654Z,1006.88
2022-08-04T11:53:18.685Z,967.50
2022-08-04T11:54:18.629Z,939.38
2022-08-04T11:55:18.624Z,933.75
2022-08-04T11:56:37.039Z,928.13
2022-08-04T11:57:18.628Z,905.63
2022-08-04T11:58:18.605Z,911.25
2022-08-04T11:59:18.613Z,950.63
2022-08-04T12:00:18.600Z,916.88
2022-08-04T12:01:21.883Z,888.75
2022-08-04T12:02:21.180Z,838.13
2022-08-04T12:03:18.573Z,765.00
2022-08-04T12:04:18.563Z,731.25
2022-08-04T12:05:32.855Z,720.00
2022-08-04T12:06:18.545Z,708.75
2022-08-04T13:19:25.861Z,765.00
2022-08-04T13:20:25.849Z,826.88
2022-08-04T13:21:49.489Z,888.75
2022-08-04T13:22:26.586Z,967.50
2022-08-04T13:23:25.819Z,2002.50
2022-08-04T13:24:31.894Z,1186.88
2022-08-04T13:26:42.869Z,1378.13
2022-08-04T13:26:43.389Z,1113.75
2022-08-04T13:27:25.799Z,995.63
2022-08-04T13:28:25.783Z,939.38
2022-08-04T13:29:58.141Z,973.13
2022-08-04T13:30:25.961Z,1198.13
2022-08-04T13:31:25.741Z,1231.88
2022-08-04T13:32:25.753Z,1153.13
2022-08-04T13:33:25.726Z,1445.63
2022-08-04T13:34:25.728Z,1755.00
2022-08-04T13:35:30.582Z,2773.13
2022-08-04T13:36:25.709Z,2908.13
2022-08-04T13:37:26.228Z,2441.25
2022-08-04T13:38:25.694Z,2176.88
2022-08-04T13:39:25.759Z,1456.88
2022-08-04T13:40:25.667Z,1192.50
2022-08-04T13:41:30.535Z,1175.63
2022-08-04T13:42:25.762Z,1108.13
2022-08-04T13:44:16.174Z,2053.13
2022-08-04T13:44:25.636Z,1158.75
2022-08-04T13:45:34.846Z,1113.75
2022-08-04T13:46:27.036Z,1051.88
2022-08-04T13:47:25.765Z,978.75
2022-08-04T13:48:32.433Z,950.63
2022-08-04T13:49:48.567Z,961.88
2022-08-04T13:50:25.590Z,1023.75
2022-08-04T13:51:25.605Z,1006.88
2022-08-04T13:52:25.582Z,1035.00
2022-08-04T13:53:30.757Z,1186.88
2022-08-04T13:54:25.569Z,1164.38
2022-08-04T13:55:25.566Z,1766.25
2022-08-04T13:56:25.551Z,2272.50
2022-08-04T13:57:25.779Z,2373.75
2022-08-04T13:58:25.537Z,2373.75
2022-08-04T13:59:25.523Z,1974.38
2022-08-04T14:00:29.123Z,1451.25
2022-08-04T14:01:35.634Z,2058.75
2022-08-04T14:02:25.512Z,1749.38
2022-08-04T14:03:25.511Z,1642.50
2022-08-04T14:04:25.497Z,1395.00
2022-08-04T14:05:28.076Z,1192.50
2022-08-04T14:06:25.479Z,1186.88
2022-08-04T14:07:25.461Z,1653.75
2022-08-04T14:08:25.470Z,2328.75
2022-08-04T14:09:35.252Z,2250.00
2022-08-04T14:10:25.452Z,2362.50
2022-08-04T14:12:06.164Z,2621.25
2022-08-04T14:12:38.266Z,2711.25
2022-08-04T14:13:25.495Z,2773.13
2022-08-04T14:14:25.418Z,3110.63
2022-08-04T14:15:25.407Z,3571.88
2022-08-04T14:16:25.414Z,3532.50
2022-08-04T14:17:30.579Z,3408.75
2022-08-04T14:18:25.436Z,3369.38
2022-08-04T14:19:29.306Z,3189.38
2022-08-04T14:20:25.389Z,3178.13
2022-08-04T14:21:25.387Z,3144.38
2022-08-04T14:22:25.379Z,3015.00
2022-08-04T14:23:31.806Z,2857.50
2022-08-04T14:24:25.372Z,2835.00
2022-08-04T14:25:30.058Z,2120.63
2022-08-04T14:26:31.507Z,1125.00
2022-08-04T14:27:25.431Z,1170.00
2022-08-04T14:28:41.179Z,2840.63
2022-08-04T14:29:28.994Z,2975.63
2022-08-04T14:30:25.343Z,3240.00
2022-08-04T14:31:29.112Z,3105.00
2022-08-04T14:32:26.431Z,3015.00
2022-08-04T14:34:03.961Z,3037.50
2022-08-04T14:34:25.316Z,2992.50
2022-08-04T14:35:26.504Z,3003.75
2022-08-04T14:36:25.415Z,922.50
2022-08-04T14:37:25.299Z,1451.25
2022-08-04T14:38:25.327Z,3009.38
2022-08-04T14:39:25.320Z,2975.63
2022-08-04T14:40:30.863Z,2970.00
2022-08-04T14:41:25.294Z,2925.00
2022-08-04T14:42:25.283Z,2795.63
2022-08-04T14:43:25.295Z,2908.13
2022-08-04T14:44:25.275Z,3060.00
2022-08-04T14:45:25.304Z,2851.88
2022-08-04T14:46:30.324Z,2784.38
2022-08-04T14:47:25.265Z,2936.25
2022-08-04T14:48:25.279Z,2975.63
2022-08-04T14:49:25.266Z,2660.63
2022-08-04T14:50:25.256Z,1665.00
2022-08-04T14:51:26.263Z,2840.63
2022-08-04T14:52:25.385Z,2795.63
2022-08-04T14:53:25.271Z,2660.63
2022-08-04T14:54:25.245Z,2739.38
2022-08-04T14:55:25.252Z,2705.63
2022-08-04T14:56:46.157Z,2576.25
2022-08-04T14:57:25.242Z,2621.25
2022-08-04T14:58:35.425Z,2700.00
2022-08-04T14:59:25.228Z,2874.38
2022-08-04T15:00:25.234Z,2846.25
2022-08-04T15:01:25.261Z,2953.13
2022-08-04T15:02:25.583Z,2947.50
2022-08-04T15:03:25.225Z,1321.88
2022-08-04T15:04:25.220Z,1614.38
2022-08-04T15:06:02.473Z,2199.38
2022-08-04T15:06:25.216Z,871.88
2022-08-04T15:07:25.202Z,793.13
2022-08-04T15:08:30.871Z,1518.75
2022-08-04T15:21:10.609Z,815.63
2022-08-04T15:22:17.551Z,821.25
2022-08-04T15:23:11.083Z,798.75
2022-08-04T15:24:10.603Z,826.88
2022-08-04T15:25:11.855Z,838.13
2022-08-04T15:26:10.595Z,838.13
2022-08-04T15:27:10.569Z,2064.38
2022-08-04T15:28:10.566Z,866.25
2022-08-04T15:51:34.236Z,928.13
